ADDS METAR Data INFO
IDs: Format: Raw Decoded Include TAF

Data at: 0037 UTC 23 Oct 2017

KCSM 222353Z AUTO 19005KT 10SM CLR 17/01 A3014 RMK AO2 SLP200 T01720011 10217 20172 56013
KCSM 222253Z AUTO 00000KT 9SM CLR 21/M04 A3015 RMK AO2 SLP199 T02111039
KCSM 222153Z AUTO 28005KT 10SM CLR 22/M04 A3017 RMK AO2 SLP205 T02171044
KCSM 222053Z AUTO 30007KT 10SM CLR 22/M05 A3018 RMK AO2 SLP209 T02171050 56023
KCSM 221953Z AUTO 35005KT 10SM CLR 21/M04 A3020 RMK AO2 SLP216 T02111044
KCSM 221853Z AUTO 30009KT 10SM CLR 19/M02 A3022 RMK AO2 SLP224 T01941022
KCSM 221753Z AUTO 31007KT 10SM CLR 18/M01 A3025 RMK AO2 SLP234 T01831011 10183 20067 58004
KCSM 221653Z AUTO 30007KT 10SM CLR 17/02 A3028 RMK AO2 SLP243 T01670017
KCSM 221553Z AUTO 31008KT 10SM CLR 15/03 A3028 RMK AO2 SLP244 T01500028
KCSM 221453Z AUTO 32010KT 10SM CLR 12/03 A3027 RMK AO2 SLP242 T01220028 53018
KCSM 221353Z AUTO 31011KT 10SM CLR 09/02 A3024 RMK AO2 SLP234 T00890022
KCSM 221253Z AUTO 30010KT 10SM CLR 07/02 A3022 RMK AO2 SLP230 T00670022
KCSM 221153Z AUTO 32009KT 10SM CLR 08/03 A3021 RMK AO2 SLP223 70001 T00780028 10128 20078 51029
KCSM 221053Z AUTO 33010KT 10SM CLR 08/03 A3019 RMK AO2 SLP213 T00830028
KCSM 220953Z AUTO 35007KT 10SM CLR 09/04 A3015 RMK AO2 SLP196 T00890039
KCSM 220853Z AUTO 35007KT 10SM CLR 10/04 A3012 RMK AO2 SLP184 T01000039 51017
KCSM 220753Z AUTO 35012KT 10SM CLR 11/04 A3010 RMK AO2 SLP176 T01110044
KCSM 220653Z AUTO 35010KT 10SM CLR 12/04 A3008 RMK AO2 SLP171 T01220044
KCSM 220553Z AUTO 35010KT 10SM CLR 13/05 A3006 RMK AO2 PRESRR SLP165 60001 T01280050 10167 20128 402720128 51033
KCSM 220453Z AUTO 36013KT 10SM CLR 14/04 A3004 RMK AO2 SLP158 T01390044
KCSM 220353Z AUTO 01012KT 10SM FEW120 14/05 A3002 RMK AO2 SLP153 T01440050
KCSM 220253Z AUTO 35016KT 10SM CLR 14/07 A2996 RMK AO2 SLP133 P0001 60001 T01390067 53024
KCSM 220153Z AUTO 36014KT 10SM FEW110 15/11 A2992 RMK AO2 LTG DSNT SE RAE30 SLP118 P0000 T01500111
KCSM 220053Z AUTO 02014KT 10SM -RA OVC100 16/12 A2991 RMK AO2 LTG DSNT ALQDS RAB19 SLP116 P0000 T01560117
KCSM 212353Z AUTO 01012KT 10SM BKN070 16/12 A2989 RMK AO2 PK WND 35033/2254 LTG DSNT NE-SE TSB04E19 SLP106 60000 T01610122 10272 20161 53031
KCSM 212346Z AUTO 01012KT 10SM FEW070 16/12 A2988 RMK AO2 PK WND 35033/2254 LTG DSNT NE-S TSB04E19 PRESRR T01610122
KCSM 212325Z AUTO 36018KT 10SM VCTS FEW065 17/13 A2982 RMK AO2 PK WND 35033/2254 LTG DSNT NE-SE TSB04E19 T01720128
KCSM 212310Z AUTO 35020KT 10SM TS FEW055 FEW070 18/12 A2983 RMK AO2 PK WND 35033/2254 LTG DSNT ALQDS TSB04 T01830122
KCSM 212253Z AUTO 35024G34KT 10SM FEW048 BKN055 BKN070 21/11 A2980 RMK AO2 PK WND 33034/2246 WSHFT 2220 LTG DSNT ALQDS SLP074 T02060106
KCSM 212238Z AUTO 34018G32KT 8SM VCTS BKN048 BKN060 BKN080 21/09 A2980 RMK AO2 PK WND 33033/2228 WSHFT 2220 LTG DSNT ALQDS T02110094
KCSM 212153Z AUTO 17009KT 10SM SCT042 27/17 A2976 RMK AO2 LTG DSNT SE AND NW RAB22E33 SLP056 P0000 T02670172
KCSM 212053Z AUTO 18016KT 10SM FEW040 FEW065 26/17 A2979 RMK AO2 SLP065 T02610167 55010
KCSM 211953Z AUTO 20015KT 10SM FEW038 26/17 A2978 RMK AO2 SLP065 T02610167
KCSM 211853Z AUTO 18020G26KT 10SM FEW060 26/17 A2980 RMK AO2 PK WND 20030/1806 SLP068 T02560172
KCSM 211753Z AUTO 19021G27KT 10SM CLR 24/17 A2982 RMK AO2 PK WND 19028/1706 SLP077 T02390167 10239 20178 58008
KCSM 211714Z AUTO 19022KT 10SM FEW020 SCT027 23/17 A2984 RMK AO2 PK WND 19028/1706 T02330172
KCSM 211653Z AUTO 20021G26KT 10SM FEW020 BKN027 BKN032 22/17 A2984 RMK AO2 PK WND 19026/1646 SLP087 T02220172
KCSM 211553Z AUTO 19016KT 10SM SCT015 OVC022 20/17 A2984 RMK AO2 SLP088 T02000172
KCSM 211453Z AUTO 17018KT 10SM FEW011 OVC018 19/17 A2984 RMK AO2 PK WND 17027/1408 SLP089 T01890172 53012
KCSM 211444Z AUTO 18019KT 10SM BKN011 OVC020 19/17 A2984 RMK AO2 PK WND 17027/1408 T01890172
KCSM 211433Z AUTO 18019KT 10SM BKN008 BKN014 OVC019 19/17 A2984 RMK AO2 PK WND 17027/1408 CIG 008V012 T01890172
KCSM 211422Z AUTO 17019KT 10SM FEW008 BKN013 OVC021 19/17 A2984 RMK AO2 PK WND 17027/1408 T01890172
KCSM 211408Z AUTO 17021G27KT 10SM BKN013 OVC020 18/17 A2983 RMK AO2 PK WND 17027/1408 T01830172
KCSM 211353Z AUTO 17019KT 10SM BKN017 OVC022 18/17 A2983 RMK AO2 PK WND 18026/1300 SLP084 T01830167
KCSM 211253Z AUTO 18022KT 10SM FEW012 OVC019 18/17 A2980 RMK AO2 PK WND 18027/1204 SLP074 T01830167